createdAt,value
2023-05-08T00:02:13.199Z,8.20
2023-05-08T00:05:16.661Z,8.20
2023-05-08T00:08:19.692Z,8.10
2023-05-08T00:11:22.717Z,8.10
2023-05-08T00:14:27.222Z,8.00
2023-05-08T00:17:30.521Z,8.00
2023-05-08T00:20:35.616Z,8.00
2023-05-08T00:23:38.629Z,8.00
2023-05-08T00:26:44.197Z,8.00
2023-05-08T00:29:49.660Z,7.80
2023-05-08T00:32:52.812Z,7.80
2023-05-08T00:36:00.748Z,7.80
2023-05-08T00:39:03.868Z,7.80
2023-05-08T00:42:06.919Z,7.60
2023-05-08T00:45:13.124Z,7.60
2023-05-08T00:48:16.632Z,7.60
2023-05-08T00:51:19.741Z,7.60
2023-05-08T00:54:23.658Z,7.50
2023-05-08T00:57:27.165Z,7.50
2023-05-08T01:00:33.714Z,7.50
2023-05-08T01:03:38.541Z,7.50
2023-05-08T01:06:42.114Z,7.40
2023-05-08T01:09:45.121Z,7.40
2023-05-08T01:13:06.401Z,7.40
2023-05-08T01:16:16.138Z,7.30
2023-05-08T01:19:49.738Z,7.20
2023-05-08T01:23:12.530Z,7.20
2023-05-08T01:26:48.880Z,7.20
2023-05-08T01:30:27.373Z,7.20
2023-05-08T01:33:37.807Z,7.20
2023-05-08T01:36:49.666Z,7.10
2023-05-08T01:39:58.788Z,7.00
2023-05-08T01:43:11.877Z,7.00
2023-05-08T01:46:19.877Z,7.00
2023-05-08T01:49:27.843Z,7.00
2023-05-08T01:52:35.518Z,7.00
2023-05-08T01:55:40.981Z,7.00
2023-05-08T01:58:44.862Z,7.00
2023-05-08T02:01:52.857Z,7.00
2023-05-08T02:04:58.549Z,6.90
2023-05-08T02:08:03.031Z,6.90
2023-05-08T02:11:07.175Z,6.80
2023-05-08T02:14:10.719Z,6.80
2023-05-08T02:17:16.988Z,6.80
2023-05-08T02:20:22.800Z,6.80
2023-05-08T02:23:28.454Z,6.80
2023-05-08T02:26:34.057Z,6.70
2023-05-08T02:29:38.621Z,6.60
2023-05-08T02:32:44.797Z,6.60
2023-05-08T02:35:51.770Z,6.60
2023-05-08T02:38:57.148Z,6.60
2023-05-08T02:42:00.830Z,6.60
2023-05-08T02:45:05.073Z,6.50
2023-05-08T02:48:14.059Z,6.50
2023-05-08T02:51:23.352Z,6.40
2023-05-08T02:54:37.780Z,6.40
2023-05-08T02:57:47.914Z,6.30
2023-05-08T03:01:06.636Z,6.30
2023-05-08T03:04:11.956Z,6.30
2023-05-08T03:07:17.644Z,6.30
2023-05-08T03:10:22.723Z,6.40
2023-05-08T03:13:27.008Z,6.30
2023-05-08T03:16:33.712Z,6.20
2023-05-08T03:19:39.677Z,6.20
2023-05-08T03:22:46.584Z,6.10
2023-05-08T03:25:49.654Z,6.10
2023-05-08T03:28:54.881Z,6.10
2023-05-08T03:31:59.594Z,6.10
2023-05-08T03:35:03.890Z,6.00
2023-05-08T03:38:09.437Z,6.00
2023-05-08T03:41:13.254Z,6.00
2023-05-08T03:44:17.600Z,6.00
2023-05-08T03:47:22.095Z,6.10
2023-05-08T03:50:25.683Z,6.00
2023-05-08T03:53:30.759Z,6.10
2023-05-08T03:56:34.937Z,6.00
2023-05-08T03:59:45.483Z,6.00
2023-05-08T04:02:57.586Z,6.10
2023-05-08T04:06:16.822Z,6.10
2023-05-08T04:09:25.820Z,6.10
2023-05-08T04:12:37.553Z,6.00
2023-05-08T04:15:47.272Z,6.10
2023-05-08T04:18:51.686Z,6.10
2023-05-08T04:21:58.696Z,6.10
2023-05-08T04:25:07.924Z,6.20
2023-05-08T04:28:12.505Z,6.20
2023-05-08T04:31:16.966Z,6.20
2023-05-08T04:34:20.310Z,6.20
2023-05-08T04:37:26.636Z,6.30
2023-05-08T04:40:31.525Z,6.30
2023-05-08T04:43:35.303Z,6.30
2023-05-08T04:46:38.585Z,6.30
2023-05-08T04:49:41.660Z,6.40
2023-05-08T04:52:44.829Z,6.50
2023-05-08T04:55:50.671Z,6.60
2023-05-08T04:58:53.635Z,6.70
2023-05-08T05:01:57.641Z,6.70
2023-05-08T05:05:01.288Z,6.80
2023-05-08T05:08:05.227Z,7.00
2023-05-08T05:11:09.537Z,7.20
2023-05-08T05:14:12.928Z,7.30
2023-05-08T05:17:15.909Z,7.50
2023-05-08T05:20:19.119Z,7.80
2023-05-08T05:23:22.144Z,8.00
2023-05-08T05:26:26.554Z,8.10
2023-05-08T05:29:30.261Z,8.30
2023-05-08T05:32:33.499Z,8.60
2023-05-08T05:35:36.575Z,8.80
2023-05-08T05:38:39.586Z,9.00
2023-05-08T05:41:44.802Z,9.30
2023-05-08T05:44:47.735Z,9.40
2023-05-08T05:47:53.188Z,9.50
2023-05-08T05:50:56.535Z,9.80
2023-05-08T05:53:59.561Z,9.90
2023-05-08T05:57:03.990Z,10.10
2023-05-08T06:00:08.825Z,10.40
2023-05-08T06:03:11.949Z,10.60
2023-05-08T06:06:15.057Z,10.40
2023-05-08T06:09:18.089Z,10.50
2023-05-08T06:12:22.597Z,10.70
2023-05-08T06:15:26.839Z,10.80
2023-05-08T06:18:29.848Z,11.10
2023-05-08T06:21:34.169Z,11.50
2023-05-08T06:24:37.168Z,11.70
2023-05-08T06:27:41.461Z,11.90
2023-05-08T06:30:44.544Z,12.00
2023-05-08T06:33:47.569Z,12.20
2023-05-08T06:36:50.590Z,12.20
2023-05-08T06:40:03.858Z,12.20
2023-05-08T06:43:16.534Z,12.40
2023-05-08T06:46:21.910Z,12.30
2023-05-08T06:49:25.017Z,12.50
2023-05-08T06:52:28.111Z,12.50
2023-05-08T06:55:31.137Z,12.50
2023-05-08T06:58:35.834Z,12.50
2023-05-08T07:01:38.951Z,12.70
2023-05-08T07:04:42.040Z,12.90
2023-05-08T07:07:45.069Z,13.00
2023-05-08T07:10:48.024Z,13.00
2023-05-08T07:13:53.679Z,12.80
2023-05-08T07:16:56.678Z,12.90
2023-05-08T07:19:59.899Z,12.90
2023-05-08T07:23:03.521Z,12.80
2023-05-08T07:26:08.162Z,12.90
2023-05-08T07:29:12.622Z,12.90
2023-05-08T07:32:16.337Z,13.00
2023-05-08T07:35:19.700Z,13.00
2023-05-08T07:38:22.689Z,13.00
2023-05-08T07:41:26.778Z,13.00
2023-05-08T07:44:37.556Z,13.00
2023-05-08T07:47:50.965Z,13.00
2023-05-08T07:50:54.068Z,13.00
2023-05-08T07:53:57.063Z,12.90
2023-05-08T07:57:00.056Z,12.80
2023-05-08T08:00:05.387Z,12.90
2023-05-08T08:03:08.535Z,12.90
2023-05-08T08:06:11.766Z,13.00
2023-05-08T08:09:14.936Z,12.90
2023-05-08T08:12:17.967Z,13.00
2023-05-08T08:15:22.547Z,12.90
2023-05-08T08:18:25.751Z,13.00
2023-05-08T08:21:28.985Z,13.00
2023-05-08T08:24:32.016Z,13.00
2023-05-08T08:27:35.006Z,13.10
2023-05-08T08:30:39.416Z,13.30
2023-05-08T08:33:42.481Z,13.50
2023-05-08T08:36:46.227Z,13.60
2023-05-08T08:39:49.344Z,13.80
2023-05-08T08:42:52.397Z,13.90
2023-05-08T08:45:57.239Z,13.90
2023-05-08T08:49:04.065Z,14.00
2023-05-08T08:52:13.096Z,14.00
2023-05-08T08:55:17.851Z,14.10
2023-05-08T08:58:26.382Z,14.10
2023-05-08T09:01:32.619Z,14.20
2023-05-08T09:04:35.669Z,14.30
2023-05-08T09:07:41.783Z,14.50
2023-05-08T09:10:44.965Z,14.70
2023-05-08T09:13:48.041Z,14.70
2023-05-08T09:16:52.774Z,14.70
2023-05-08T09:19:56.177Z,14.70
2023-05-08T09:23:03.700Z,14.70
2023-05-08T09:26:06.952Z,14.80
2023-05-08T09:29:11.512Z,14.90
2023-05-08T09:32:19.853Z,15.00
2023-05-08T09:35:37.792Z,15.00
2023-05-08T09:38:43.675Z,14.90
2023-05-08T09:41:58.918Z,15.00
2023-05-08T09:45:02.180Z,15.10
2023-05-08T09:48:07.389Z,15.20
2023-05-08T09:51:10.987Z,15.40
2023-05-08T09:54:19.532Z,15.30
2023-05-08T09:57:22.546Z,15.30
2023-05-08T10:00:26.550Z,15.40
2023-05-08T10:03:49.201Z,15.40
2023-05-08T10:06:59.426Z,15.50
2023-05-08T10:10:04.444Z,15.60
2023-05-08T10:13:07.623Z,15.80
2023-05-08T10:16:15.808Z,15.80
2023-05-08T10:19:22.564Z,15.80
2023-05-08T10:22:27.214Z,15.90
2023-05-08T10:25:34.275Z,16.00
2023-05-08T10:28:44.436Z,16.20
2023-05-08T10:31:50.507Z,16.40
2023-05-08T10:34:59.614Z,16.50
2023-05-08T10:38:03.891Z,16.50
2023-05-08T10:41:07.319Z,16.50
2023-05-08T10:44:11.045Z,16.50
2023-05-08T10:47:23.733Z,16.50
2023-05-08T10:50:46.598Z,16.60
2023-05-08T10:53:55.164Z,16.60
2023-05-08T10:57:10.611Z,16.60
2023-05-08T11:00:14.793Z,16.70
2023-05-08T11:03:30.725Z,16.80
2023-05-08T11:06:48.910Z,16.90
2023-05-08T11:09:52.389Z,16.80
2023-05-08T11:12:55.926Z,17.00
2023-05-08T11:15:58.939Z,17.10
2023-05-08T11:19:18.071Z,17.20
2023-05-08T11:22:28.403Z,17.20
2023-05-08T11:25:43.787Z,17.10
2023-05-08T11:28:58.296Z,17.20
2023-05-08T11:32:01.368Z,17.20
2023-05-08T11:35:04.569Z,17.20
2023-05-08T11:38:26.253Z,17.30
2023-05-08T11:41:29.504Z,17.60
2023-05-08T11:44:33.212Z,17.70
2023-05-08T11:47:40.062Z,17.80
2023-05-08T11:50:43.074Z,17.80
2023-05-08T11:53:48.061Z,18.00
2023-05-08T11:56:52.162Z,18.00
2023-05-08T11:59:55.313Z,18.00
2023-05-08T12:02:58.598Z,18.00
2023-05-08T12:06:01.702Z,18.00
2023-05-08T12:09:12.456Z,18.20
2023-05-08T12:12:15.396Z,18.20
2023-05-08T12:15:18.749Z,18.20
2023-05-08T12:18:22.932Z,18.10
2023-05-08T12:21:27.584Z,18.10
2023-05-08T12:24:31.969Z,18.20
2023-05-08T12:27:35.289Z,18.30
2023-05-08T12:30:38.753Z,18.30
2023-05-08T12:33:42.482Z,18.30
2023-05-08T12:36:45.530Z,18.40
2023-05-08T12:39:49.884Z,18.50
2023-05-08T12:42:53.311Z,18.40
2023-05-08T12:45:56.354Z,18.50
2023-05-08T12:49:04.545Z,18.50
2023-05-08T12:52:09.066Z,18.50
2023-05-08T12:55:26.935Z,18.50
2023-05-08T12:58:31.845Z,18.30
2023-05-08T13:01:35.199Z,18.40
2023-05-08T13:04:39.069Z,18.50
2023-05-08T13:07:42.153Z,18.50
2023-05-08T13:10:51.614Z,18.50
2023-05-08T13:13:54.553Z,18.60
2023-05-08T13:16:57.736Z,18.60
2023-05-08T13:20:00.848Z,18.70
2023-05-08T13:23:03.893Z,18.70
2023-05-08T13:26:08.291Z,18.80
2023-05-08T13:29:11.376Z,18.80
2023-05-08T13:32:14.421Z,18.90
2023-05-08T13:35:18.496Z,18.90
2023-05-08T13:38:21.930Z,18.70
2023-05-08T13:41:26.721Z,18.90
2023-05-08T13:44:30.475Z,19.00
2023-05-08T13:47:34.055Z,19.10
2023-05-08T13:50:37.111Z,19.00
2023-05-08T13:53:40.197Z,18.80
2023-05-08T13:56:44.664Z,18.80
2023-05-08T13:59:48.178Z,18.90
2023-05-08T14:02:53.129Z,18.90
2023-05-08T14:05:56.609Z,19.00
2023-05-08T14:08:59.633Z,19.10
2023-05-08T14:12:04.141Z,19.10
2023-05-08T14:15:09.056Z,19.10
2023-05-08T14:18:12.100Z,19.10
2023-05-08T14:21:15.622Z,19.10
2023-05-08T14:24:18.611Z,19.20
2023-05-08T14:27:23.219Z,19.10
2023-05-08T14:30:26.365Z,19.00
2023-05-08T14:33:29.446Z,19.10
2023-05-08T14:36:32.478Z,19.20
2023-05-08T14:39:35.648Z,19.30
2023-05-08T14:42:42.946Z,19.40
2023-05-08T14:45:45.930Z,19.30
2023-05-08T14:48:48.963Z,19.30
2023-05-08T14:51:52.079Z,19.20
2023-05-08T14:54:55.239Z,19.10
2023-05-08T14:57:59.731Z,19.20
2023-05-08T15:01:02.774Z,19.20
2023-05-08T15:04:06.137Z,19.20
2023-05-08T15:07:09.298Z,19.40
2023-05-08T15:10:12.662Z,19.30
2023-05-08T15:13:17.389Z,19.30
2023-05-08T15:16:20.679Z,19.30
2023-05-08T15:19:23.669Z,19.30
2023-05-08T15:22:27.870Z,19.20
2023-05-08T15:25:31.302Z,19.40
2023-05-08T15:28:35.725Z,19.70
2023-05-08T15:31:38.808Z,20.00
2023-05-08T15:34:42.098Z,19.70
2023-05-08T15:37:45.112Z,19.50
2023-05-08T15:40:48.340Z,19.40
2023-05-08T15:43:52.721Z,19.40
2023-05-08T15:46:55.696Z,19.50
2023-05-08T15:50:01.708Z,19.30
2023-05-08T15:53:04.949Z,19.20
2023-05-08T15:56:08.222Z,19.00
2023-05-08T15:59:12.899Z,18.90
2023-05-08T16:02:16.307Z,19.00
2023-05-08T16:05:19.753Z,19.00
2023-05-08T16:08:22.824Z,19.10
2023-05-08T16:11:26.158Z,19.10
2023-05-08T16:14:30.701Z,18.90
2023-05-08T16:17:34.136Z,18.70
2023-05-08T16:20:37.233Z,18.50
2023-05-08T16:23:40.525Z,18.30
2023-05-08T16:26:43.627Z,18.10
2023-05-08T16:29:48.308Z,18.00
2023-05-08T16:32:51.355Z,17.90
2023-05-08T16:35:54.667Z,17.80
2023-05-08T16:38:57.640Z,17.60
2023-05-08T16:42:00.652Z,17.50
2023-05-08T16:45:05.626Z,17.30
2023-05-08T16:48:08.630Z,17.20
2023-05-08T16:51:11.694Z,17.10
2023-05-08T16:54:14.721Z,17.00
2023-05-08T16:57:17.999Z,17.00
2023-05-08T17:00:23.235Z,16.90
2023-05-08T17:03:26.586Z,16.80
2023-05-08T17:06:29.695Z,16.70
2023-05-08T17:09:33.953Z,16.70
2023-05-08T17:12:37.977Z,16.60
2023-05-08T17:15:42.351Z,16.60
2023-05-08T17:18:45.498Z,16.50
2023-05-08T17:21:48.457Z,16.50
2023-05-08T17:24:51.508Z,16.40
2023-05-08T17:27:54.711Z,16.30
2023-05-08T17:30:59.637Z,16.20
2023-05-08T17:34:02.879Z,16.10
2023-05-08T17:37:05.989Z,16.10
2023-05-08T17:40:11.242Z,16.10
2023-05-08T17:43:18.865Z,16.10
2023-05-08T17:46:24.655Z,16.00
2023-05-08T17:49:28.016Z,15.80
2023-05-08T17:52:32.293Z,15.80
2023-05-08T17:55:35.291Z,15.70
2023-05-08T17:58:38.335Z,15.70
2023-05-08T18:01:42.952Z,15.60
2023-05-08T18:04:46.077Z,15.60
2023-05-08T18:07:52.127Z,15.50
2023-05-08T18:10:56.479Z,15.50
2023-05-08T18:14:02.672Z,15.40
2023-05-08T18:17:30.591Z,15.40
2023-05-08T18:20:44.449Z,15.30
2023-05-08T18:24:18.722Z,15.30
2023-05-08T18:27:36.399Z,15.20
2023-05-08T18:30:59.921Z,15.10
2023-05-08T18:34:25.052Z,15.00
2023-05-08T18:37:44.322Z,14.90
2023-05-08T18:45:10.972Z,14.70
2023-05-08T18:48:14.412Z,14.60
2023-05-08T18:51:18.736Z,14.50
2023-05-08T18:54:23.779Z,14.40
2023-05-08T18:57:29.814Z,14.30
2023-05-08T19:03:58.299Z,14.10
2023-05-08T19:11:53.191Z,14.00
2023-05-08T19:14:56.145Z,13.90
2023-05-08T19:17:59.258Z,13.80
2023-05-08T19:21:03.255Z,13.70
2023-05-08T19:24:09.705Z,13.70
2023-05-08T19:27:14.002Z,13.60
2023-05-08T19:30:17.111Z,13.50
2023-05-08T19:33:20.826Z,13.40
2023-05-08T19:36:24.155Z,13.30
2023-05-08T19:39:28.569Z,13.20
2023-05-08T19:42:31.544Z,13.20
2023-05-08T19:45:34.526Z,13.10
2023-05-08T19:48:39.822Z,13.10
2023-05-08T19:51:42.833Z,13.00
2023-05-08T19:54:47.308Z,13.00
2023-05-08T19:57:50.388Z,12.90
2023-05-08T20:00:53.717Z,12.90
2023-05-08T20:03:59.708Z,12.80
2023-05-08T20:07:03.618Z,12.80
2023-05-08T20:10:09.607Z,12.70
2023-05-08T20:13:12.716Z,12.70
2023-05-08T20:16:15.890Z,12.60
2023-05-08T20:19:19.041Z,12.50
2023-05-08T20:22:22.211Z,12.50
2023-05-08T20:25:28.836Z,12.50
2023-05-08T20:28:32.164Z,12.40
2023-05-08T20:31:35.349Z,12.30
2023-05-08T20:34:38.454Z,12.30
2023-05-08T20:37:45.023Z,12.30
2023-05-08T20:40:49.503Z,12.30
2023-05-08T20:43:52.531Z,12.20
2023-05-08T20:46:55.686Z,12.10
2023-05-08T20:49:58.737Z,12.10
2023-05-08T20:53:01.749Z,12.00
2023-05-08T20:56:07.467Z,12.00
2023-05-08T20:59:11.422Z,12.00
2023-05-08T21:02:14.564Z,11.90
2023-05-08T21:05:18.540Z,11.90
2023-05-08T21:08:23.215Z,11.80
2023-05-08T21:11:30.097Z,11.70
2023-05-08T21:14:33.151Z,11.70
2023-05-08T21:17:36.263Z,11.70
2023-05-08T21:20:39.599Z,11.60
2023-05-08T21:23:42.686Z,11.50
2023-05-08T21:26:47.139Z,11.60
2023-05-08T21:29:50.459Z,11.50
2023-05-08T21:32:54.180Z,11.50
2023-05-08T21:35:57.314Z,11.50
2023-05-08T21:39:00.305Z,11.40
2023-05-08T21:42:05.046Z,11.40
2023-05-08T21:45:08.753Z,11.30
2023-05-08T21:48:11.722Z,11.30
2023-05-08T21:51:14.885Z,11.20
2023-05-08T21:54:17.824Z,11.10
2023-05-08T21:57:22.400Z,11.10
2023-05-08T22:00:25.442Z,11.10
2023-05-08T22:03:30.669Z,11.00
2023-05-08T22:06:34.012Z,11.10
2023-05-08T22:09:37.068Z,11.00
2023-05-08T22:12:41.482Z,10.90
2023-05-08T22:15:44.612Z,10.90
2023-05-08T22:18:47.656Z,10.80
2023-05-08T22:21:50.758Z,10.80
2023-05-08T22:24:53.810Z,10.70
2023-05-08T22:27:58.249Z,10.70
2023-05-08T22:31:01.336Z,10.60
2023-05-08T22:34:04.317Z,10.50
2023-05-08T22:37:07.512Z,10.50
2023-05-08T22:40:11.248Z,10.40
2023-05-08T22:43:16.309Z,10.40
2023-05-08T22:46:19.794Z,10.40
2023-05-08T22:49:23.154Z,10.30
2023-05-08T22:52:26.228Z,10.20
2023-05-08T22:55:29.262Z,10.20
2023-05-08T22:58:33.667Z,10.20
2023-05-08T23:01:36.832Z,10.10
2023-05-08T23:04:40.103Z,10.00
2023-05-08T23:07:43.504Z,10.00
2023-05-08T23:10:47.040Z,10.00
2023-05-08T23:13:51.446Z,10.00
2023-05-08T23:16:54.556Z,10.00
2023-05-08T23:19:57.636Z,9.90
2023-05-08T23:23:00.705Z,9.80
2023-05-08T23:26:05.092Z,9.80
2023-05-08T23:29:09.647Z,9.80
2023-05-08T23:32:13.355Z,9.70
2023-05-08T23:35:16.569Z,9.70
2023-05-08T23:38:19.925Z,9.60
2023-05-08T23:41:23.171Z,9.60
2023-05-08T23:44:27.595Z,9.60
2023-05-08T23:47:30.988Z,9.50
2023-05-08T23:50:34.049Z,9.50
2023-05-08T23:53:37.204Z,9.50
2023-05-08T23:56:40.534Z,9.40
2023-05-08T23:59:45.067Z,9.40
